createdAt,value
2018-04-02T00:00:31.688Z,0.00
2018-04-02T00:01:31.913Z,0.00
2018-04-02T00:03:31.566Z,0.00
2018-04-02T00:04:31.633Z,0.00
2018-04-02T00:05:31.510Z,0.00
2018-04-02T00:06:31.484Z,0.00
2018-04-02T00:07:31.869Z,0.00
2018-04-02T00:08:31.443Z,0.00
2018-04-02T00:10:31.494Z,0.00
2018-04-02T00:11:31.361Z,0.00
2018-04-02T00:12:31.342Z,0.00
2018-04-02T00:13:31.619Z,0.00
2018-04-02T00:14:31.285Z,0.00
2018-04-02T00:15:31.370Z,0.00
2018-04-02T00:16:31.352Z,0.00
2018-04-02T00:17:31.312Z,0.00
2018-04-02T00:19:31.465Z,0.00
2018-04-02T00:20:31.146Z,0.00
2018-04-02T00:23:31.175Z,0.00
2018-04-02T00:24:31.058Z,0.00
2018-04-02T00:25:31.329Z,0.00
2018-04-02T00:26:31.002Z,0.00
2018-04-02T00:28:30.962Z,0.00
2018-04-02T00:29:30.983Z,0.00
2018-04-02T00:30:30.910Z,0.00
2018-04-02T00:31:31.173Z,0.00
2018-04-02T00:32:30.849Z,0.00
2018-04-02T00:33:30.832Z,0.00
2018-04-02T00:34:30.805Z,0.00
2018-04-02T00:35:30.834Z,0.00
2018-04-02T00:36:30.751Z,0.00
2018-04-02T00:37:30.739Z,0.00
2018-04-02T00:38:31.008Z,0.00
2018-04-02T00:39:30.677Z,0.00
2018-04-02T00:40:30.651Z,0.00
2018-04-02T00:41:30.735Z,0.00
2018-04-02T00:42:30.900Z,0.00
2018-04-02T00:44:30.854Z,0.00
2018-04-02T00:45:30.528Z,0.00
2018-04-02T00:47:30.588Z,0.00
2018-04-02T00:49:30.447Z,0.00
2018-04-02T00:50:30.513Z,0.00
2018-04-02T00:51:31.691Z,0.00
2018-04-02T00:52:30.464Z,0.00
2018-04-02T00:55:30.359Z,0.00
2018-04-02T00:56:30.265Z,0.00
2018-04-02T00:57:30.338Z,0.00
2018-04-02T00:58:30.508Z,0.00
2018-04-02T00:59:30.185Z,0.00
2018-04-02T01:00:30.172Z,0.00
2018-04-02T01:01:30.142Z,0.00
2018-04-02T01:02:30.161Z,0.00
2018-04-02T01:03:30.197Z,0.00
2018-04-02T01:04:30.060Z,0.00
2018-04-02T01:06:30.365Z,0.00
2018-04-02T01:07:29.992Z,0.00
2018-04-02T01:08:29.978Z,0.00
2018-04-02T01:09:29.992Z,0.00
2018-04-02T01:10:29.918Z,0.00
2018-04-02T01:11:29.887Z,0.00
2018-04-02T01:12:29.922Z,0.00
2018-04-02T01:13:30.140Z,0.00
2018-04-02T01:14:29.817Z,0.00
2018-04-02T01:15:29.789Z,0.00
2018-04-02T01:16:29.774Z,0.00
2018-04-02T01:17:29.747Z,0.00
2018-04-02T01:18:30.327Z,0.00
2018-04-02T01:19:30.005Z,0.00
2018-04-02T01:20:29.676Z,0.00
2018-04-02T01:21:29.644Z,0.00
2018-04-02T01:22:29.630Z,0.00
2018-04-02T01:23:29.609Z,0.00
2018-04-02T01:24:29.629Z,0.00
2018-04-02T01:25:29.845Z,0.00
2018-04-02T01:26:29.521Z,0.00
2018-04-02T01:27:29.500Z,0.00
2018-04-02T01:28:29.481Z,0.00
2018-04-02T01:29:29.558Z,0.00
2018-04-02T01:30:29.438Z,0.00
2018-04-02T01:31:29.704Z,0.00
2018-04-02T01:33:29.346Z,0.00
2018-04-02T01:34:29.420Z,0.00
2018-04-02T01:35:29.308Z,0.00
2018-04-02T01:36:29.314Z,0.00
2018-04-02T01:37:29.549Z,0.00
2018-04-02T01:38:29.233Z,0.00
2018-04-02T01:39:29.202Z,0.00
2018-04-02T01:40:29.224Z,0.00
2018-04-02T01:41:29.161Z,0.00
2018-04-02T01:42:29.131Z,0.00
2018-04-02T01:43:29.408Z,0.00
2018-04-02T01:44:29.126Z,0.00
2018-04-02T01:45:29.051Z,0.00
2018-04-02T01:46:29.076Z,0.00
2018-04-02T01:47:29.003Z,0.00
2018-04-02T01:48:28.977Z,0.00
2018-04-02T01:49:29.263Z,0.00
2018-04-02T01:50:28.926Z,0.00
2018-04-02T01:51:28.903Z,0.00
2018-04-02T01:52:28.987Z,0.00
2018-04-02T01:53:28.865Z,0.00
2018-04-02T01:54:28.844Z,0.00
2018-04-02T01:55:29.106Z,0.00
2018-04-02T01:56:28.880Z,0.00
2018-04-02T01:57:28.755Z,0.00
2018-04-02T01:58:28.731Z,0.00
2018-04-02T01:59:28.715Z,0.00
2018-04-02T02:00:28.688Z,0.00
2018-04-02T02:01:28.662Z,0.00
2018-04-02T02:02:28.980Z,0.00
2018-04-02T02:03:28.614Z,0.00
2018-04-02T02:04:28.590Z,0.00
2018-04-02T02:05:28.558Z,0.00
2018-04-02T02:06:28.582Z,0.00
2018-04-02T02:08:28.783Z,0.00
2018-04-02T02:09:28.468Z,0.00
2018-04-02T02:10:28.439Z,0.00
2018-04-02T02:11:28.409Z,0.00
2018-04-02T02:12:33.692Z,0.00
2018-04-02T02:13:28.365Z,0.00
2018-04-02T02:14:28.345Z,0.00
2018-04-02T02:15:28.617Z,0.00
2018-04-02T02:16:28.284Z,0.00
2018-04-02T02:17:28.367Z,0.00
2018-04-02T02:18:28.233Z,0.00
2018-04-02T02:19:28.216Z,0.00
2018-04-02T02:20:28.199Z,0.00
2018-04-02T02:21:28.168Z,0.00
2018-04-02T02:22:28.442Z,0.00
2018-04-02T02:23:28.209Z,0.00
2018-04-02T02:24:28.091Z,0.00
2018-04-02T02:25:28.141Z,0.00
2018-04-02T02:26:28.036Z,0.00
2018-04-02T02:27:28.110Z,0.00
2018-04-02T02:28:27.988Z,0.00
2018-04-02T02:29:28.321Z,0.00
2018-04-02T02:30:27.935Z,0.00
2018-04-02T02:31:27.919Z,0.00
2018-04-02T02:32:27.893Z,0.00
2018-04-02T02:33:27.871Z,0.00
2018-04-02T02:34:27.937Z,0.00
2018-04-02T02:35:27.824Z,0.00
2018-04-02T02:36:28.092Z,0.00
2018-04-02T02:37:27.767Z,0.00
2018-04-02T02:38:27.746Z,0.00
2018-04-02T02:39:27.722Z,0.00
2018-04-02T02:40:27.737Z,0.00
2018-04-02T02:41:27.672Z,0.00
2018-04-02T02:42:27.943Z,0.00
2018-04-02T02:43:27.624Z,0.00
2018-04-02T02:45:27.674Z,0.00
2018-04-02T02:46:27.564Z,0.00
2018-04-02T02:47:27.524Z,0.00
2018-04-02T02:48:27.797Z,0.00
2018-04-02T02:49:27.464Z,0.00
2018-04-02T02:50:27.449Z,0.00
2018-04-02T02:51:27.765Z,0.00
2018-04-02T02:52:27.394Z,0.00
2018-04-02T02:53:27.377Z,0.00
2018-04-02T02:54:27.643Z,0.00
2018-04-02T02:55:27.329Z,0.00
2018-04-02T02:56:27.296Z,0.00
2018-04-02T02:57:27.365Z,0.00
2018-04-02T02:59:27.224Z,0.00
2018-04-02T03:00:27.200Z,0.00
2018-04-02T03:01:27.530Z,0.00
2018-04-02T03:02:27.141Z,0.00
2018-04-02T03:03:27.116Z,0.00
2018-04-02T03:04:27.099Z,0.00
2018-04-02T03:05:27.073Z,0.00
2018-04-02T03:06:27.089Z,0.00
2018-04-02T03:07:27.329Z,0.00
2018-04-02T03:08:26.995Z,0.00
2018-04-02T03:09:27.124Z,0.00
2018-04-02T03:10:26.948Z,0.00
2018-04-02T03:11:26.920Z,0.00
2018-04-02T03:12:26.941Z,0.00
2018-04-02T03:13:27.447Z,0.00
2018-04-02T03:14:27.380Z,0.00
2018-04-02T03:16:26.823Z,0.00
2018-04-02T03:17:27.050Z,0.00
2018-04-02T03:18:27.008Z,0.00
2018-04-02T03:19:26.815Z,0.00
2018-04-02T03:20:27.111Z,0.00
2018-04-02T03:21:26.679Z,0.00
2018-04-02T03:22:26.641Z,0.00
2018-04-02T03:23:26.673Z,0.00
2018-04-02T03:24:26.698Z,0.00
2018-04-02T03:26:26.853Z,0.00
2018-04-02T03:27:26.570Z,0.00
2018-04-02T03:28:26.500Z,0.00
2018-04-02T03:30:26.455Z,0.00
2018-04-02T03:31:26.426Z,0.00
2018-04-02T03:32:26.454Z,0.00
2018-04-02T03:33:26.675Z,0.00
2018-04-02T03:34:26.341Z,0.00
2018-04-02T03:35:26.318Z,0.00
2018-04-02T03:36:26.293Z,0.00
2018-04-02T03:37:26.270Z,0.00
2018-04-02T03:38:26.289Z,0.00
2018-04-02T03:39:26.223Z,0.00
2018-04-02T03:40:26.542Z,0.00
2018-04-02T03:42:26.141Z,0.00
2018-04-02T03:43:26.177Z,0.00
2018-04-02T03:44:26.194Z,0.00
2018-04-02T03:45:26.179Z,0.00
2018-04-02T03:46:26.092Z,0.00
2018-04-02T03:47:26.317Z,0.00
2018-04-02T03:48:25.998Z,0.00
2018-04-02T03:49:25.981Z,0.00
2018-04-02T03:50:25.958Z,0.00
2018-04-02T03:51:25.965Z,0.00
2018-04-02T03:52:25.900Z,0.00
2018-04-02T03:53:25.974Z,0.00
2018-04-02T03:54:26.139Z,0.00
2018-04-02T03:55:26.575Z,0.00
2018-04-02T03:58:25.799Z,0.00
2018-04-02T03:59:25.728Z,0.00
2018-04-02T04:00:25.698Z,0.00
2018-04-02T04:01:26.068Z,0.00
2018-04-02T04:02:25.649Z,0.00
2018-04-02T04:03:25.630Z,0.00
2018-04-02T04:04:25.705Z,0.00
2018-04-02T04:05:25.572Z,0.00
2018-04-02T04:06:25.543Z,0.00
2018-04-02T04:08:25.798Z,0.00
2018-04-02T04:09:25.574Z,0.00
2018-04-02T04:10:25.440Z,0.00
2018-04-02T04:11:25.415Z,0.00
2018-04-02T04:12:25.400Z,0.00
2018-04-02T04:13:25.365Z,0.00
2018-04-02T04:14:25.689Z,0.00
2018-04-02T04:15:25.324Z,0.00
2018-04-02T04:16:25.290Z,0.00
2018-04-02T04:17:25.296Z,0.00
2018-04-02T04:18:25.243Z,0.00
2018-04-02T04:19:25.288Z,0.00
2018-04-02T04:20:25.493Z,4.00
2018-04-02T04:21:25.165Z,4.00
2018-04-02T04:22:25.189Z,0.00
2018-04-02T04:23:25.122Z,4.00
2018-04-02T04:24:25.148Z,4.00
2018-04-02T04:25:25.114Z,4.00
2018-04-02T04:26:25.397Z,4.00
2018-04-02T04:27:25.032Z,4.00
2018-04-02T04:28:25.041Z,8.00
2018-04-02T04:29:24.964Z,8.00
2018-04-02T04:30:24.946Z,8.00
2018-04-02T04:31:24.917Z,12.00
2018-04-02T04:32:25.247Z,12.00
2018-04-02T04:33:24.965Z,16.00
2018-04-02T04:35:24.849Z,24.00
2018-04-02T04:37:24.767Z,28.00
2018-04-02T04:38:24.800Z,36.00
2018-04-02T04:39:25.028Z,40.00
2018-04-02T04:40:24.745Z,48.00
2018-04-02T04:41:24.792Z,56.00
2018-04-02T04:42:24.642Z,64.00
2018-04-02T04:43:24.617Z,72.00
2018-04-02T04:44:24.640Z,80.00
2018-04-02T04:45:24.573Z,88.00
2018-04-02T04:46:24.843Z,96.00
2018-04-02T04:47:24.571Z,108.00
2018-04-02T04:48:24.489Z,120.00
2018-04-02T04:49:24.468Z,132.00
2018-04-02T04:50:24.550Z,144.00
2018-04-02T04:51:24.475Z,160.00
2018-04-02T04:52:24.406Z,176.00
2018-04-02T04:53:24.676Z,192.00
2018-04-02T04:54:24.347Z,208.00
2018-04-02T04:56:24.319Z,248.00
2018-04-02T04:57:24.372Z,268.00
2018-04-02T04:58:24.245Z,296.00
2018-04-02T04:59:24.297Z,320.00
2018-04-02T05:00:24.501Z,352.00
2018-04-02T05:01:24.176Z,396.00
2018-04-02T05:02:24.148Z,436.00
2018-04-02T05:03:24.142Z,460.00
2018-04-02T05:04:24.097Z,476.00
2018-04-02T05:05:24.122Z,500.00
2018-04-02T05:06:24.048Z,508.00
2018-04-02T05:07:24.318Z,512.00
2018-04-02T05:08:23.999Z,524.00
2018-04-02T05:09:23.968Z,548.00
2018-04-02T05:10:23.954Z,584.00
2018-04-02T05:11:23.992Z,628.00
2018-04-02T05:12:23.910Z,664.00
2018-04-02T05:13:23.879Z,712.00
2018-04-02T05:14:24.199Z,756.00
2018-04-02T05:15:23.923Z,792.00
2018-04-02T05:16:23.797Z,816.00
2018-04-02T05:17:23.797Z,840.00
2018-04-02T05:18:23.759Z,864.00
2018-04-02T05:19:23.734Z,900.00
2018-04-02T05:20:23.749Z,936.00
2018-04-02T05:21:23.978Z,976.00
2018-04-02T05:22:23.649Z,1012.00
2018-04-02T05:23:23.632Z,1056.00
2018-04-02T05:24:23.602Z,1100.00
2018-04-02T05:25:23.583Z,1140.00
2018-04-02T05:26:23.650Z,1164.00
2018-04-02T05:27:23.827Z,1188.00
2018-04-02T05:28:23.509Z,1220.00
2018-04-02T05:29:23.486Z,1264.00
2018-04-02T05:30:23.491Z,1328.00
2018-04-02T05:31:23.533Z,1400.00
2018-04-02T05:32:23.509Z,1436.00
2018-04-02T05:33:23.681Z,1512.00
2018-04-02T05:34:23.362Z,1624.00
2018-04-02T05:35:23.333Z,1684.00
2018-04-02T05:36:23.319Z,1692.00
2018-04-02T05:37:23.638Z,1664.00
2018-04-02T05:38:23.254Z,1584.00
2018-04-02T05:39:23.535Z,1560.00
2018-04-02T05:40:23.205Z,1508.00
2018-04-02T05:41:23.181Z,1484.00
2018-04-02T05:42:23.165Z,1468.00
2018-04-02T05:43:23.238Z,1448.00
2018-04-02T05:44:23.108Z,1416.00
2018-04-02T05:45:23.385Z,1400.00
2018-04-02T05:46:23.172Z,1404.00
2018-04-02T05:47:23.034Z,1420.00
2018-04-02T05:48:23.066Z,1452.00
2018-04-02T05:49:22.990Z,1472.00
2018-04-02T05:50:22.959Z,1524.00
2018-04-02T05:51:23.242Z,1564.00
2018-04-02T05:52:23.010Z,1596.00
2018-04-02T05:53:22.987Z,1692.00
2018-04-02T05:54:22.872Z,1808.00
2018-04-02T05:55:22.837Z,1860.00
2018-04-02T05:56:22.823Z,1848.00
2018-04-02T05:57:23.090Z,1848.00
2018-04-02T05:58:22.863Z,1884.00
2018-04-02T05:59:22.790Z,1916.00
2018-04-02T06:00:22.716Z,1956.00
2018-04-02T06:01:22.690Z,1980.00
2018-04-02T06:02:22.673Z,1972.00
2018-04-02T06:03:22.951Z,1972.00
2018-04-02T06:04:22.727Z,2052.00
2018-04-02T06:05:22.601Z,2144.00
2018-04-02T06:06:22.581Z,2208.00
2018-04-02T06:07:22.548Z,2212.00
2018-04-02T06:08:22.521Z,2252.00
2018-04-02T06:09:22.655Z,2368.00
2018-04-02T06:10:22.774Z,2488.00
2018-04-02T06:11:22.456Z,2512.00
2018-04-02T06:12:22.525Z,2536.00
2018-04-02T06:13:22.401Z,2584.00
2018-04-02T06:14:22.376Z,2600.00
2018-04-02T06:15:22.452Z,2512.00
2018-04-02T06:16:22.329Z,2296.00
2018-04-02T06:17:22.604Z,2224.00
2018-04-02T06:18:22.289Z,2216.00
2018-04-02T06:19:22.269Z,2236.00
2018-04-02T06:20:22.240Z,2188.00
2018-04-02T06:21:23.563Z,2152.00
2018-04-02T06:22:23.617Z,2104.00
2018-04-02T06:23:22.171Z,2076.00
2018-04-02T06:24:22.445Z,2104.00
2018-04-02T06:25:22.130Z,2156.00
2018-04-02T06:26:22.101Z,2180.00
2018-04-02T06:27:22.068Z,2248.00
2018-04-02T06:28:22.154Z,2272.00
2018-04-02T06:29:22.023Z,2304.00
2018-04-02T06:30:22.004Z,2380.00
2018-04-02T06:31:22.380Z,2500.00
2018-04-02T06:32:22.159Z,2564.00
2018-04-02T06:33:22.031Z,2676.00
2018-04-02T06:34:21.901Z,2720.00
2018-04-02T06:35:21.877Z,2904.00
2018-04-02T06:37:22.146Z,3552.00
2018-04-02T06:38:21.907Z,3528.00
2018-04-02T06:39:21.789Z,3548.00
2018-04-02T06:40:21.761Z,3620.00
2018-04-02T06:41:21.745Z,3788.00
2018-04-02T06:42:21.731Z,3808.00
2018-04-02T06:43:21.844Z,3732.00
2018-04-02T06:44:21.976Z,3804.00
2018-04-02T06:45:21.654Z,3936.00
2018-04-02T06:46:21.622Z,3800.00
2018-04-02T06:47:21.600Z,3632.00
2018-04-02T06:48:21.580Z,3548.00
2018-04-02T06:49:21.603Z,3372.00
2018-04-02T06:50:21.836Z,3168.00
2018-04-02T06:51:21.564Z,3116.00
2018-04-02T06:52:21.491Z,3168.00
2018-04-02T06:53:21.475Z,3236.00
2018-04-02T06:54:21.448Z,3172.00
2018-04-02T06:55:21.517Z,3048.00
2018-04-02T06:56:21.702Z,2928.00
2018-04-02T06:57:21.379Z,2880.00
2018-04-02T06:58:21.354Z,2892.00
2018-04-02T06:59:21.337Z,2896.00
2018-04-02T07:00:21.308Z,2928.00
2018-04-02T07:01:21.338Z,2916.00
2018-04-02T07:02:21.560Z,2924.00
2018-04-02T07:06:21.179Z,2712.00
2018-04-02T07:08:21.579Z,2716.00
2018-04-02T07:09:21.106Z,2684.00
2018-04-02T07:10:21.153Z,2704.00
2018-04-02T07:11:21.153Z,2756.00
2018-04-02T07:12:21.040Z,2768.00
2018-04-02T07:13:21.077Z,2780.00
2018-04-02T07:16:21.260Z,2816.00
2018-04-02T07:17:20.968Z,2812.00
2018-04-02T07:18:20.964Z,2748.00
2018-04-02T07:19:20.941Z,2724.00
2018-04-02T07:20:20.870Z,2748.00
2018-04-02T07:21:20.840Z,2732.00
2018-04-02T07:22:21.179Z,2716.00
2018-04-02T07:23:20.796Z,2764.00
2018-04-02T07:24:20.977Z,2828.00
2018-04-02T07:25:20.762Z,2880.00
2018-04-02T07:26:20.880Z,2896.00
2018-04-02T07:27:20.716Z,2952.00
2018-04-02T07:28:21.024Z,3000.00
2018-04-02T07:29:20.662Z,3096.00
2018-04-02T07:30:20.649Z,3212.00
2018-04-02T07:31:20.623Z,3256.00
2018-04-02T07:32:20.703Z,3308.00
2018-04-02T07:33:20.686Z,3336.00
2018-04-02T07:34:20.874Z,3360.00
2018-04-02T07:35:20.548Z,3400.00
2018-04-02T07:36:20.521Z,3464.00
2018-04-02T07:38:20.488Z,3556.00
2018-04-02T07:39:20.516Z,3560.00
2018-04-02T07:40:20.443Z,3592.00
2018-04-02T07:41:20.715Z,3624.00
2018-04-02T07:42:20.601Z,3616.00
2018-04-02T07:43:20.380Z,3600.00
2018-04-02T07:44:20.427Z,3568.00
2018-04-02T07:45:20.340Z,3472.00
2018-04-02T07:46:20.518Z,3416.00
2018-04-02T07:47:20.309Z,3376.00
2018-04-02T07:48:20.679Z,3360.00
2018-04-02T07:49:20.267Z,3332.00
2018-04-02T07:50:20.252Z,3372.00
2018-04-02T07:51:20.331Z,3352.00
2018-04-02T07:52:20.210Z,3372.00
2018-04-02T07:53:20.189Z,3392.00
2018-04-02T07:55:20.527Z,3432.00
2018-04-02T07:56:20.191Z,3488.00
2018-04-02T07:57:20.167Z,3536.00
2018-04-02T07:58:20.097Z,3520.00
2018-04-02T07:59:20.080Z,3572.00
2018-04-02T08:00:20.057Z,3580.00
2018-04-02T08:01:20.048Z,3628.00
2018-04-02T08:02:20.320Z,3692.00
2018-04-02T08:03:20.060Z,3728.00
2018-04-02T08:04:20.053Z,3696.00
2018-04-02T08:05:19.974Z,3680.00
2018-04-02T08:06:20.036Z,3720.00
2018-04-02T08:07:19.932Z,3724.00
2018-04-02T08:08:19.916Z,3812.00
2018-04-02T08:09:20.256Z,3872.00
2018-04-02T08:10:19.888Z,4068.00
2018-04-02T08:11:19.863Z,4236.00
2018-04-02T08:12:19.855Z,4392.00
2018-04-02T08:13:19.838Z,4560.00
2018-04-02T08:16:19.894Z,5004.00
2018-04-02T08:17:19.823Z,5180.00
2018-04-02T08:18:19.752Z,5364.00
2018-04-02T08:19:19.743Z,5488.00
2018-04-02T08:20:19.719Z,5664.00
2018-04-02T08:21:20.047Z,5792.00
2018-04-02T08:22:19.686Z,5840.00
2018-04-02T08:23:19.729Z,5764.00
2018-04-02T08:24:19.666Z,5688.00
2018-04-02T08:25:19.689Z,5532.00
2018-04-02T08:27:19.923Z,5400.00
2018-04-02T08:28:19.625Z,5344.00
2018-04-02T08:29:19.707Z,5172.00
2018-04-02T08:30:19.577Z,5172.00
2018-04-02T08:31:19.561Z,5296.00
2018-04-02T08:32:19.540Z,5312.00
2018-04-02T08:33:19.838Z,5188.00
2018-04-02T08:34:19.508Z,4924.00
2018-04-02T08:35:19.601Z,4828.00
2018-04-02T08:36:19.498Z,4844.00
2018-04-02T08:37:19.676Z,4932.00
2018-04-02T08:38:19.465Z,5016.00
2018-04-02T08:39:19.742Z,5068.00
2018-04-02T08:40:19.443Z,5064.00
2018-04-02T08:42:19.498Z,5100.00
2018-04-02T08:43:19.383Z,5052.00
2018-04-02T08:44:19.421Z,4968.00
2018-04-02T08:45:19.656Z,4904.00
2018-04-02T08:46:19.348Z,4912.00
2018-04-02T08:47:19.437Z,4940.00
2018-04-02T08:48:19.321Z,4928.00
2018-04-02T08:49:19.299Z,4936.00
2018-04-02T08:50:19.292Z,4900.00
2018-04-02T08:51:19.586Z,4848.00
2018-04-02T08:52:19.310Z,4820.00
2018-04-02T08:53:19.348Z,4812.00
2018-04-02T08:54:19.233Z,4780.00
2018-04-02T08:56:19.264Z,4840.00
2018-04-02T08:57:19.203Z,4888.00
2018-04-02T08:58:19.488Z,4884.00
2018-04-02T08:59:19.172Z,4940.00
2018-04-02T09:00:19.158Z,5000.00
2018-04-02T09:01:19.150Z,5048.00
2018-04-02T09:02:19.230Z,5124.00
2018-04-02T09:03:19.120Z,5268.00
2018-04-02T09:04:19.113Z,5400.00
2018-04-02T09:05:19.455Z,5452.00
2018-04-02T09:07:19.216Z,5524.00
2018-04-02T09:08:19.059Z,5612.00
2018-04-02T09:09:19.044Z,5684.00
2018-04-02T09:10:19.085Z,5640.00
2018-04-02T09:11:19.021Z,5764.00
2018-04-02T09:12:19.308Z,5820.00
2018-04-02T09:14:19.004Z,5896.00
2018-04-02T09:15:18.980Z,5896.00
2018-04-02T09:16:19.012Z,5876.00
2018-04-02T09:17:18.957Z,5896.00
2018-04-02T09:18:18.937Z,5956.00
2018-04-02T09:19:19.232Z,6024.00
2018-04-02T09:21:18.903Z,6084.00
2018-04-02T09:22:18.948Z,6120.00
2018-04-02T09:23:18.874Z,6232.00
2018-04-02T09:24:18.874Z,6356.00
2018-04-02T09:25:19.421Z,6460.00
2018-04-02T09:26:19.192Z,6544.00
2018-04-02T09:27:18.841Z,6684.00
2018-04-02T09:28:18.830Z,6752.00
2018-04-02T09:29:18.814Z,6852.00
2018-04-02T09:31:18.868Z,7108.00
2018-04-02T09:32:18.897Z,7224.00
2018-04-02T09:33:19.066Z,7384.00
2018-04-02T09:34:18.754Z,7528.00
2018-04-02T09:35:18.740Z,7696.00
2018-04-02T09:36:18.735Z,7844.00
2018-04-02T09:38:18.818Z,8152.00
2018-04-02T09:39:18.701Z,8348.00
2018-04-02T09:40:18.991Z,8484.00
2018-04-02T09:41:18.683Z,8708.00
2018-04-02T09:43:18.685Z,8856.00
2018-04-02T09:44:18.768Z,8816.00
2018-04-02T09:45:18.637Z,8932.00
2018-04-02T09:46:18.628Z,9088.00
2018-04-02T09:47:19.032Z,9228.00
2018-04-02T09:48:18.626Z,9508.00
2018-04-02T09:49:18.597Z,9708.00
2018-04-02T09:50:18.591Z,9956.00
2018-04-02T09:51:18.577Z,10140.00
2018-04-02T09:52:18.622Z,10408.00
2018-04-02T09:53:18.855Z,10572.00
2018-04-02T09:54:18.695Z,11140.00
2018-04-02T09:55:18.693Z,11692.00
2018-04-02T09:56:18.635Z,11948.00
2018-04-02T09:58:18.507Z,13112.00
2018-04-02T10:00:18.790Z,15392.00
2018-04-02T10:01:18.544Z,16864.00
2018-04-02T10:02:18.466Z,19808.00
2018-04-02T10:03:18.561Z,22240.00
2018-04-02T10:07:18.738Z,26880.00
2018-04-02T10:08:18.461Z,29088.00
2018-04-02T10:09:18.414Z,28800.00
2018-04-02T10:10:18.593Z,26144.00
2018-04-02T10:12:18.477Z,30016.00
2018-04-02T10:13:18.383Z,31872.00
2018-04-02T10:15:18.672Z,31424.00
2018-04-02T10:16:18.394Z,33248.00
2018-04-02T10:17:18.343Z,33664.00
2018-04-02T10:19:18.420Z,31296.00
2018-04-02T10:21:18.611Z,25952.00
2018-04-02T10:22:18.452Z,23488.00
2018-04-02T10:25:18.370Z,20832.00
2018-04-02T10:26:18.314Z,20576.00
2018-04-02T10:27:18.557Z,20032.00
2018-04-02T10:28:18.351Z,20096.00
2018-04-02T10:29:18.299Z,20384.00
2018-04-02T10:30:18.223Z,20672.00
2018-04-02T10:31:18.228Z,20352.00
2018-04-02T10:32:18.218Z,20256.00
2018-04-02T10:34:18.550Z,20704.00
2018-04-02T10:35:18.235Z,20864.00
2018-04-02T10:38:18.166Z,21376.00
2018-04-02T10:39:18.160Z,21216.00
2018-04-02T10:41:18.448Z,20672.00
2018-04-02T10:42:18.192Z,20256.00
2018-04-02T10:43:18.246Z,20160.00
2018-04-02T10:44:18.128Z,20320.00
2018-04-02T10:46:18.167Z,20224.00
2018-04-02T10:47:18.101Z,20384.00
2018-04-02T10:49:18.451Z,20800.00
2018-04-02T10:50:18.076Z,21632.00
2018-04-02T10:51:18.072Z,22496.00
2018-04-02T10:52:18.115Z,30240.00
2018-04-02T10:53:18.060Z,54976.00
2018-04-02T10:54:18.062Z,73664.00
2018-04-02T10:55:18.047Z,66528.00
2018-04-02T10:56:18.373Z,59680.00
2018-04-02T10:57:18.134Z,62144.00
2018-04-02T10:58:18.081Z,62432.00
2018-04-02T10:59:18.032Z,63840.00
2018-04-02T11:00:18.014Z,62208.00
2018-04-02T11:01:18.011Z,61216.00
2018-04-02T11:03:18.343Z,65728.00
2018-04-02T11:04:18.053Z,62304.00
2018-04-02T11:05:17.989Z,60416.00
2018-04-02T11:07:17.972Z,67264.00
2018-04-02T11:08:18.015Z,69152.00
2018-04-02T11:09:18.053Z,67904.00
2018-04-02T11:10:18.355Z,66272.00
2018-04-02T11:13:17.934Z,68512.00
2018-04-02T11:14:18.031Z,59168.00
2018-04-02T11:15:17.980Z,50016.00
2018-04-02T11:16:17.922Z,46208.00
2018-04-02T11:18:18.295Z,36192.00
2018-04-02T11:19:17.913Z,40864.00
2018-04-02T11:20:17.951Z,28704.00
2018-04-02T11:21:17.900Z,43008.00
2018-04-02T11:22:18.695Z,48800.00
2018-04-02T11:25:18.224Z,66592.00
2018-04-02T11:26:17.913Z,52128.00
2018-04-02T11:27:17.862Z,45376.00
2018-04-02T11:30:17.888Z,24672.00
2018-04-02T11:31:17.838Z,37632.00
2018-04-02T11:32:18.127Z,29184.00
2018-04-02T11:33:17.847Z,30816.00
2018-04-02T11:34:17.868Z,23296.00
2018-04-02T11:35:18.051Z,29792.00
2018-04-02T11:36:17.856Z,25184.00
2018-04-02T11:38:18.081Z,28320.00
2018-04-02T11:39:17.782Z,26016.00
2018-04-02T11:40:17.773Z,22688.00
2018-04-02T11:41:17.825Z,20672.00
2018-04-02T11:42:18.108Z,19392.00
2018-04-02T11:44:18.053Z,18752.00
2018-04-02T11:45:17.754Z,19040.00
2018-04-02T11:46:17.734Z,19520.00
2018-04-02T11:47:17.819Z,19360.00
2018-04-02T11:48:17.820Z,24896.00
2018-04-02T11:49:17.708Z,19392.00
2018-04-02T11:51:18.040Z,21184.00
2018-04-02T11:52:17.688Z,20704.00
2018-04-02T11:53:17.672Z,24736.00
2018-04-02T11:55:17.658Z,30400.00
2018-04-02T11:56:17.757Z,29568.00
2018-04-02T11:59:17.738Z,36352.00
2018-04-02T12:00:17.717Z,34112.00
2018-04-02T12:01:17.613Z,26432.00
2018-04-02T12:02:17.593Z,27200.00
2018-04-02T12:03:17.893Z,30752.00
2018-04-02T12:04:17.578Z,35968.00
2018-04-02T12:05:17.569Z,33856.00
2018-04-02T12:06:17.611Z,31328.00
2018-04-02T12:08:17.570Z,35776.00
2018-04-02T12:10:17.878Z,36544.00
2018-04-02T12:11:17.519Z,43328.00
2018-04-02T12:12:17.560Z,33920.00
2018-04-02T12:13:17.503Z,24928.00
2018-04-02T12:14:17.500Z,22624.00
2018-04-02T12:15:17.485Z,27936.00
2018-04-02T12:16:20.744Z,20960.00
2018-04-02T12:18:17.770Z,18624.00
2018-04-02T12:20:17.456Z,19136.00
2018-04-02T12:21:17.457Z,21568.00
2018-04-02T12:23:17.482Z,23232.00
2018-04-02T12:24:17.415Z,23488.00
2018-04-02T12:26:17.699Z,20096.00
2018-04-02T12:27:17.399Z,22144.00
2018-04-02T12:28:17.381Z,28160.00
2018-04-02T12:29:17.425Z,25408.00
2018-04-02T12:31:17.366Z,23488.00
2018-04-02T12:32:17.359Z,22112.00
2018-04-02T12:34:17.631Z,19552.00
2018-04-02T12:35:17.437Z,19712.00
2018-04-02T12:36:17.324Z,21088.00
2018-04-02T12:37:17.307Z,21984.00
2018-04-02T12:38:17.306Z,22720.00
2018-04-02T12:39:17.299Z,24960.00
2018-04-02T12:40:17.284Z,29504.00
2018-04-02T12:41:17.324Z,26080.00
2018-04-02T12:42:17.257Z,25312.00
2018-04-02T12:43:17.313Z,25024.00
2018-04-02T12:45:17.332Z,27392.00
2018-04-02T12:46:17.276Z,28352.00
2018-04-02T12:47:17.512Z,27200.00
2018-04-02T12:48:17.208Z,27840.00
2018-04-02T12:49:17.209Z,26016.00
2018-04-02T12:50:17.187Z,23680.00
2018-04-02T12:51:17.181Z,24672.00
2018-04-02T12:52:17.290Z,29792.00
2018-04-02T12:54:17.450Z,47712.00
2018-04-02T12:55:17.141Z,49728.00
2018-04-02T12:57:17.243Z,27616.00
2018-04-02T12:58:17.226Z,26976.00
2018-04-02T13:00:17.458Z,27552.00
2018-04-02T13:01:17.110Z,28800.00
2018-04-02T13:02:17.089Z,26400.00
2018-04-02T13:03:17.086Z,23104.00
2018-04-02T13:04:17.176Z,20544.00
2018-04-02T13:05:17.080Z,19840.00
2018-04-02T13:07:17.090Z,19200.00
2018-04-02T13:08:17.137Z,19552.00
2018-04-02T13:09:17.029Z,19584.00
2018-04-02T13:10:17.012Z,20640.00
2018-04-02T13:11:17.016Z,20448.00
2018-04-02T13:12:17.319Z,20544.00
2018-04-02T13:13:16.996Z,21312.00
2018-04-02T13:15:17.037Z,26624.00
2018-04-02T13:16:17.014Z,19840.00
2018-04-02T13:17:16.977Z,20928.00
2018-04-02T13:18:17.351Z,18144.00
2018-04-02T13:19:16.954Z,16768.00
2018-04-02T13:21:16.927Z,20448.00
2018-04-02T13:22:16.965Z,21216.00
2018-04-02T13:23:16.899Z,22336.00
2018-04-02T13:24:17.249Z,22848.00
2018-04-02T13:25:16.969Z,25344.00
2018-04-02T13:26:16.879Z,26720.00
2018-04-02T13:27:16.942Z,22496.00
2018-04-02T13:28:16.860Z,24064.00
2018-04-02T13:29:16.860Z,23520.00
2018-04-02T13:30:17.133Z,29664.00
2018-04-02T13:31:16.870Z,30336.00
2018-04-02T13:32:16.915Z,45408.00
2018-04-02T13:35:16.796Z,38976.00
2018-04-02T13:36:16.777Z,22784.00
2018-04-02T13:37:17.070Z,28064.00
2018-04-02T13:38:16.859Z,28480.00
2018-04-02T13:40:16.742Z,47072.00
2018-04-02T13:41:16.742Z,28160.00
2018-04-02T13:42:16.724Z,38464.00
2018-04-02T13:43:16.828Z,36032.00
2018-04-02T13:44:16.717Z,21440.00
2018-04-02T13:45:16.704Z,20384.00
2018-04-02T13:47:16.685Z,18208.00
2018-04-02T13:48:16.684Z,21664.00
2018-04-02T13:50:17.020Z,18144.00
2018-04-02T13:52:16.649Z,15640.00
2018-04-02T13:53:16.692Z,15700.00
2018-04-02T13:55:16.667Z,14456.00
2018-04-02T13:56:16.615Z,14168.00
2018-04-02T13:57:16.913Z,14000.00
2018-04-02T13:58:16.594Z,14088.00
2018-04-02T13:59:16.631Z,14824.00
2018-04-02T14:00:16.573Z,16832.00
2018-04-02T14:01:16.565Z,20320.00
2018-04-02T14:02:16.616Z,20576.00
2018-04-02T14:03:16.656Z,18784.00
2018-04-02T14:04:16.845Z,16512.00